Terminal Aerodrome Forecast
Issued by NWS

Home | Current Version | Previous Version | Text Only | Print | Product List | Glossary On
Versions: 1 2 3 4 5 6 7 8 9 10 11 12 13 14 15 16 17 18 19 20
000
FTUS43 KGRB 291733
TAFCWA
TAF
KCWA 291733Z 2918/3018 05010G16KT P6SM BKN200
     FM292200 06009G15KT P6SM BKN150
     FM300200 07009KT P6SM OVC100
     FM300700 06009G15KT P6SM OVC060
     FM301000 06009G16KT P6SM OVC026
      TEMPO 3010/3012 5SM -RA
     FM301200 07011G19KT 5SM -RA OVC013=

USA.gov is the U.S. government's official web portal to all federal, state and local government web resources and services.